Time;durP1;ratioP1;P1;durP2;ratioP2;P2;SDS_P1;SDS_P2;PMS_P1;PMS_P2;Temp;Humidity;BMP_temperature;BMP_pressure;BME280_temperature;BME280_humidity;BME280_pressure;Samples;Min_cycle;Max_cycle;Signal;HPM_P1;HPM_P2
2023/03/09 00:00:32;;;;;;;73.28;42.05;;;;;;;-0.96;100.00;98868.47;6206161;23;20087;-85
2023/03/09 00:02:58;;;;;;;81.32;44.17;;;;;;;-0.96;100.00;98864.13;6206878;23;19996;-85
2023/03/09 00:05:24;;;;;;;78.60;43.47;;;;;;;-0.89;100.00;98864.72;6207345;23;20055;-85
2023/03/09 00:07:49;;;;;;;84.38;44.50;;;;;;;-0.91;100.00;98861.34;6206317;23;20008;-84
2023/03/09 00:10:15;;;;;;;76.68;42.70;;;;;;;-0.92;100.00;98859.59;6207635;23;20116;-85
2023/03/09 00:12:41;;;;;;;79.00;43.28;;;;;;;-0.93;100.00;98852.69;6205779;23;20009;-84
2023/03/09 00:15:08;;;;;;;82.30;44.78;;;;;;;-0.93;100.00;98847.47;6206387;23;20418;-85
2023/03/09 00:17:33;;;;;;;78.70;42.70;;;;;;;-0.94;100.00;98857.06;6206890;23;20008;-84
2023/03/09 00:20:14;;;;;;;82.50;44.53;;;;;;;-0.92;100.00;98854.38;6206550;23;20014;-85
2023/03/09 00:22:40;;;;;;;82.90;45.38;;;;;;;-0.98;100.00;98844.16;6205315;23;20452;-85
2023/03/09 00:25:05;;;;;;;85.88;45.05;;;;;;;-0.91;100.00;98832.59;6207656;23;20004;-86
2023/03/09 00:27:30;;;;;;;83.00;44.53;;;;;;;-0.91;100.00;98816.94;6206489;23;20051;-85
2023/03/09 00:29:56;;;;;;;87.40;45.05;;;;;;;-0.88;100.00;98845.53;6207571;23;20016;-83
2023/03/09 00:32:21;;;;;;;86.05;45.70;;;;;;;-0.93;100.00;98871.81;6204894;23;20406;-83
2023/03/09 00:34:46;;;;;;;85.30;46.42;;;;;;;-0.91;100.00;98885.69;6206939;23;20012;-83
2023/03/09 00:37:12;;;;;;;83.57;45.67;;;;;;;-0.93;100.00;98895.31;6180832;23;20087;-85
2023/03/09 00:39:37;;;;;;;86.55;46.65;;;;;;;-0.88;100.00;98897.75;6206135;23;20396;-84
2023/03/09 00:42:03;;;;;;;86.60;45.60;;;;;;;-0.86;100.00;98898.56;6206461;23;20015;-84
2023/03/09 00:44:28;;;;;;;86.68;47.20;;;;;;;-0.91;100.00;98893.53;6208065;23;20062;-84
2023/03/09 00:46:53;;;;;;;94.15;48.95;;;;;;;-0.84;100.00;98901.97;6180985;23;20004;-84
2023/03/09 00:49:19;;;;;;;86.60;47.50;;;;;;;-0.85;100.00;98897.66;6207138;23;20103;-83
2023/03/09 00:51:44;;;;;;;90.18;46.33;;;;;;;-0.85;100.00;98901.13;6205532;23;20009;-84
2023/03/09 00:54:12;;;;;;;89.93;48.50;;;;;;;-0.84;100.00;98904.59;6207084;23;20059;-84
2023/03/09 00:56:37;;;;;;;96.72;48.15;;;;;;;-0.82;100.00;98902.78;6206126;23;20166;-84
2023/03/09 00:59:03;;;;;;;90.40;48.30;;;;;;;-0.82;100.00;98905.41;6181044;23;20047;-83
2023/03/09 01:01:28;;;;;;;93.38;48.20;;;;;;;-0.86;100.00;98903.81;6203944;23;20224;-84
2023/03/09 01:03:54;;;;;;;90.65;47.03;;;;;;;-0.82;100.00;98913.25;6206628;23;20004;-84
2023/03/09 01:06:20;;;;;;;84.65;45.53;;;;;;;-0.84;100.00;98928.94;6207680;23;20008;-84
2023/03/09 01:08:45;;;;;;;85.90;46.13;;;;;;;-0.82;100.00;98934.13;6206702;23;20008;-84
2023/03/09 01:11:13;;;;;;;90.53;47.35;;;;;;;-0.80;100.00;98947.97;6206555;23;20008;-84
2023/03/09 01:13:39;;;;;;;87.65;46.60;;;;;;;-0.80;100.00;98954.06;6205445;23;20008;-84
2023/03/09 01:16:05;;;;;;;88.43;48.10;;;;;;;-0.81;100.00;98951.50;6206245;23;20004;-84
2023/03/09 01:18:30;;;;;;;94.88;48.63;;;;;;;-0.80;100.00;98966.25;6181051;23;20059;-84
2023/03/09 01:20:57;;;;;;;84.82;47.42;;;;;;;-0.87;100.00;98983.06;6207337;23;20004;-84
2023/03/09 01:23:22;;;;;;;93.57;47.33;;;;;;;-0.80;100.00;99003.69;6205122;23;20327;-83
2023/03/09 01:25:47;;;;;;;92.47;48.22;;;;;;;-0.84;100.00;98986.41;6206365;23;20000;-85
2023/03/09 01:28:13;;;;;;;92.10;48.22;;;;;;;-0.88;100.00;98974.38;6208059;23;20001;-84
2023/03/09 01:30:38;;;;;;;88.22;46.60;;;;;;;-0.80;100.00;98989.78;6208131;23;20005;-84
2023/03/09 01:33:03;;;;;;;93.30;47.58;;;;;;;-0.80;100.00;98984.53;6179969;23;20016;-84
2023/03/09 01:35:29;;;;;;;92.32;48.47;;;;;;;-0.84;100.00;98977.72;6205384;23;20012;-83
2023/03/09 01:37:54;;;;;;;98.53;48.03;;;;;;;-0.80;100.00;98995.84;6206668;23;20027;-85
2023/03/09 01:40:23;;;;;;;90.03;47.47;;;;;;;-0.86;100.00;98992.59;6206745;23;20004;-85
2023/03/09 01:42:55;;;;;;;88.25;45.85;;;;;;;-0.78;100.00;99029.78;6205556;23;20075;-84
2023/03/09 01:45:20;;;;;;;90.65;45.05;;;;;;;-0.77;100.00;99026.25;6206421;23;20004;-84
2023/03/09 01:47:46;;;;;;;91.78;47.97;;;;;;;-0.78;100.00;99019.31;6206661;23;20422;-83
2023/03/09 01:50:14;;;;;;;91.30;47.13;;;;;;;-0.76;100.00;99015.72;6207556;23;20082;-84
2023/03/09 01:52:42;;;;;;;90.53;46.63;;;;;;;-0.76;100.00;99012.28;6204976;23;20426;-84
2023/03/09 01:55:14;;;;;;;94.95;48.42;;;;;;;-0.76;100.00;99002.66;6208552;23;20044;-84
2023/03/09 01:57:48;;;;;;;97.47;47.97;;;;;;;-0.74;100.00;99025.31;6207953;23;20004;-81
2023/03/09 02:00:18;;;;;;;94.82;46.38;;;;;;;-0.75;100.00;99019.22;6205313;23;20008;-83
2023/03/09 02:02:48;;;;;;;101.22;48.15;;;;;;;-0.73;100.00;99027.00;6203348;23;20000;-83
2023/03/09 02:05:33;;;;;;;86.03;45.95;;;;;;;-0.79;100.00;99021.09;6206714;23;20008;-84
2023/03/09 02:08:00;;;;;;;94.57;46.28;;;;;;;-0.74;100.00;99035.75;6206839;23;20036;-84
2023/03/09 02:10:40;;;;;;;103.50;46.45;;;;;;;-0.73;100.00;99048.75;6206534;23;20004;-83
2023/03/09 02:13:13;;;;;;;90.85;45.78;;;;;;;-0.78;100.00;99038.47;6178447;23;20009;-85
2023/03/09 02:15:39;;;;;;;94.47;45.45;;;;;;;-0.77;100.00;99034.09;6204853;23;20091;-84
2023/03/09 02:18:05;;;;;;;95.68;46.10;;;;;;;-0.82;100.00;99028.16;6206184;23;20036;-84
2023/03/09 02:20:39;;;;;;;92.78;46.33;;;;;;;-0.81;100.00;99035.09;6205206;23;20001;-83
2023/03/09 02:23:17;;;;;;;86.68;43.97;;;;;;;-0.74;100.00;99044.44;6204341;23;20076;-84
2023/03/09 02:25:54;;;;;;;93.80;44.47;;;;;;;-0.76;100.00;99035.78;6206052;23;20012;-82
2023/03/09 02:28:20;;;;;;;93.50;45.65;;;;;;;-0.74;100.00;99028.75;6205250;23;20036;-83
2023/03/09 02:30:48;;;;;;;93.10;45.25;;;;;;;-0.79;100.00;99023.69;6204359;23;20654;-83
2023/03/09 02:33:27;;;;;;;92.47;44.55;;;;;;;-0.73;100.00;99043.53;6206321;23;20063;-84
2023/03/09 02:35:55;;;;;;;97.60;46.33;;;;;;;-0.75;100.00;99042.75;6205376;23;20273;-84
2023/03/09 02:38:21;;;;;;;90.95;45.78;;;;;;;-0.69;100.00;99057.34;6205999;23;20005;-84
2023/03/09 02:40:48;;;;;;;97.30;46.22;;;;;;;-0.68;100.00;99057.28;6205657;23;20657;-84
2023/03/09 02:43:17;;;;;;;84.00;43.47;;;;;;;-0.78;100.00;99055.91;6178691;23;20441;-83
2023/03/09 02:45:42;;;;;;;94.22;45.92;;;;;;;-0.80;100.00;99047.25;6205905;23;20004;-84
2023/03/09 02:48:08;;;;;;;99.75;46.33;;;;;;;-0.71;100.00;99070.47;6205914;23;20005;-83
2023/03/09 02:50:33;;;;;;;95.97;45.90;;;;;;;-0.74;100.00;99061.88;6205068;23;20031;-84
2023/03/09 02:53:00;;;;;;;98.80;48.20;;;;;;;-0.85;100.00;99046.53;6205698;23;20068;-83
2023/03/09 02:55:25;;;;;;;101.22;47.25;;;;;;;-0.72;100.00;99079.19;6206804;23;20075;-84
2023/03/09 02:57:50;;;;;;;102.22;47.42;;;;;;;-0.72;100.00;99081.78;6204809;23;20039;-85
2023/03/09 03:00:16;;;;;;;96.90;47.40;;;;;;;-0.72;100.00;99065.28;6205112;23;20000;-84
2023/03/09 03:02:42;;;;;;;103.03;48.10;;;;;;;-0.72;100.00;99075.72;6203853;23;20466;-85
2023/03/09 03:05:08;;;;;;;102.90;47.40;;;;;;;-0.75;100.00;99071.47;6206501;23;20032;-84
2023/03/09 03:07:34;;;;;;;100.93;47.80;;;;;;;-0.77;100.00;99060.19;6204752;23;20079;-83
2023/03/09 03:09:59;;;;;;;110.40;48.75;;;;;;;-0.84;100.00;99041.25;6205800;23;20100;-83
2023/03/09 03:12:24;;;;;;;102.72;49.78;;;;;;;-0.74;100.00;99059.25;6206313;23;20050;-84
2023/03/09 03:14:50;;;;;;;106.28;48.50;;;;;;;-0.72;100.00;99067.88;6208183;23;20015;-84
2023/03/09 03:17:15;;;;;;;102.82;50.13;;;;;;;-0.72;100.00;99078.34;6208111;23;20005;-84
2023/03/09 03:19:40;;;;;;;102.70;48.80;;;;;;;-0.76;100.00;99074.97;6208994;23;20004;-84
2023/03/09 03:22:07;;;;;;;97.22;47.72;;;;;;;-0.77;100.00;99074.13;6207100;23;20051;-84
2023/03/09 03:24:36;;;;;;;107.90;48.95;;;;;;;-0.69;100.00;99096.53;6207755;23;20011;-84
2023/03/09 03:27:02;;;;;;;104.32;49.35;;;;;;;-0.74;100.00;99094.06;6207697;23;20011;-84
2023/03/09 03:29:27;;;;;;;111.60;50.75;;;;;;;-0.75;100.00;99092.38;6211364;23;20016;-84
2023/03/09 03:31:52;;;;;;;112.35;51.28;;;;;;;-0.72;100.00;99092.25;6211046;23;20083;-84
2023/03/09 03:34:18;;;;;;;112.13;50.30;;;;;;;-0.75;100.00;99102.81;6208741;23;20000;-84
2023/03/09 03:36:43;;;;;;;103.97;50.47;;;;;;;-0.82;100.00;99101.31;6180269;23;20009;-84
2023/03/09 03:39:08;;;;;;;115.75;51.65;;;;;;;-0.72;100.00;99123.59;6207345;23;20009;-84
2023/03/09 03:41:34;;;;;;;108.10;51.53;;;;;;;-0.72;100.00;99131.44;6206092;23;20008;-85
2023/03/09 03:43:59;;;;;;;116.18;50.90;;;;;;;-0.72;100.00;99139.28;6207668;23;20046;-84
2023/03/09 03:46:25;;;;;;;117.70;53.55;;;;;;;-0.70;100.00;99142.72;6207983;23;20012;-84
2023/03/09 03:48:50;;;;;;;120.75;52.72;;;;;;;-0.70;100.00;99141.84;6206560;23;20008;-84
2023/03/09 03:51:16;;;;;;;127.38;54.92;;;;;;;-0.71;100.00;99141.00;6210633;23;20011;-83
2023/03/09 03:53:42;;;;;;;131.05;55.92;;;;;;;-0.72;100.00;99134.06;6212967;23;20318;-83
2023/03/09 03:56:08;;;;;;;125.70;54.65;;;;;;;-0.71;100.00;99150.56;6212585;23;20517;-84
2023/03/09 03:58:33;;;;;;;128.27;54.88;;;;;;;-0.71;100.00;99156.69;6211645;23;20013;-83
2023/03/09 04:00:59;;;;;;;128.35;55.53;;;;;;;-0.70;100.00;99147.09;6211277;23;20037;-84
2023/03/09 04:03:24;;;;;;;138.85;57.63;;;;;;;-0.77;100.00;99131.59;6213426;23;20084;-84
2023/03/09 04:05:49;;;;;;;126.50;56.58;;;;;;;-0.72;100.00;99149.72;6210690;23;20036;-83
2023/03/09 04:08:15;;;;;;;130.80;57.30;;;;;;;-0.82;100.00;99143.09;6207856;23;20007;-85
2023/03/09 04:10:40;;;;;;;120.53;55.08;;;;;;;-0.72;100.00;99160.19;6204931;23;20005;-84
2023/03/09 04:13:06;;;;;;;136.02;58.72;;;;;;;-0.71;100.00;99163.63;6207089;23;20023;-85
2023/03/09 04:15:32;;;;;;;137.32;59.67;;;;;;;-0.73;100.00;99161.09;6210447;23;20015;-83
2023/03/09 04:17:59;;;;;;;138.25;59.88;;;;;;;-0.75;100.00;99162.91;6208731;23;20004;-84
2023/03/09 04:20:24;;;;;;;144.63;61.53;;;;;;;-0.76;100.00;99155.94;6208396;23;20016;-84
2023/03/09 04:22:50;;;;;;;159.40;62.33;;;;;;;-0.73;100.00;99168.94;6206729;23;20019;-84
2023/03/09 04:25:15;;;;;;;140.23;60.22;;;;;;;-0.74;100.00;99174.22;6207494;23;20001;-85
2023/03/09 04:27:41;;;;;;;143.27;61.63;;;;;;;-0.78;100.00;99170.84;6206882;23;20414;-84
2023/03/09 04:30:07;;;;;;;139.32;60.40;;;;;;;-0.76;100.00;99182.06;6206935;23;20009;-84
2023/03/09 04:32:33;;;;;;;139.07;61.72;;;;;;;-0.72;100.00;99194.13;6205784;23;20009;-83
2023/03/09 04:34:58;;;;;;;142.65;62.03;;;;;;;-0.71;100.00;99200.22;6207647;23;20008;-84
2023/03/09 04:37:24;;;;;;;148.48;61.63;;;;;;;-0.74;100.00;99188.13;6208011;23;20020;-84
2023/03/09 04:39:49;;;;;;;150.48;62.65;;;;;;;-0.76;100.00;99190.75;6206051;23;20010;-83
2023/03/09 04:42:14;;;;;;;145.07;62.53;;;;;;;-0.72;100.00;99186.31;6208202;23;20001;-85
2023/03/09 04:44:40;;;;;;;147.50;62.75;;;;;;;-0.73;100.00;99197.66;6207468;23;20004;-85
2023/03/09 04:47:06;;;;;;;156.98;64.57;;;;;;;-0.76;100.00;99200.38;6209397;23;20019;-83
2023/03/09 04:49:31;;;;;;;162.85;65.00;;;;;;;-0.82;100.00;99190.13;6206143;23;20007;-82
2023/03/09 04:51:57;;;;;;;151.75;63.88;;;;;;;-0.76;100.00;99206.44;6206320;23;20009;-83
2023/03/09 04:54:22;;;;;;;163.75;65.55;;;;;;;-0.76;100.00;99214.28;6175797;23;20039;-83
2023/03/09 04:56:47;;;;;;;152.43;63.38;;;;;;;-0.83;100.00;99198.88;6174295;23;20105;-84
2023/03/09 04:59:12;;;;;;;162.52;63.33;;;;;;;-0.76;100.00;99221.25;6201604;23;20028;-83
2023/03/09 05:01:38;;;;;;;157.43;63.28;;;;;;;-0.77;100.00;99216.94;6199701;23;20012;-84
2023/03/09 05:04:03;;;;;;;155.70;63.80;;;;;;;-0.77;100.00;99217.81;6201495;23;20005;-83
2023/03/09 05:06:29;;;;;;;152.48;64.68;;;;;;;-0.77;100.00;99230.00;6199260;23;20004;-82
2023/03/09 05:08:54;;;;;;;153.93;62.70;;;;;;;-0.84;100.00;99223.25;6200306;23;20038;-83
2023/03/09 05:11:19;;;;;;;164.50;66.82;;;;;;;-0.74;100.00;99237.75;6200709;23;20008;-83
2023/03/09 05:13:44;;;;;;;148.27;64.03;;;;;;;-0.74;100.00;99247.34;6200454;23;20362;-83
2023/03/09 05:16:10;;;;;;;150.48;63.97;;;;;;;-0.81;100.00;99238.84;6202290;23;20051;-82
2023/03/09 05:18:36;;;;;;;158.45;65.47;;;;;;;-0.79;100.00;99247.50;6199267;23;20004;-82
2023/03/09 05:21:07;;;;;;;155.50;66.05;;;;;;;-0.85;100.00;99247.66;6174888;23;20151;-82
2023/03/09 05:23:32;;;;;;;149.23;62.30;;;;;;;-0.73;100.00;99270.81;6201653;23;20020;-82
2023/03/09 05:25:59;;;;;;;152.02;63.70;;;;;;;-0.78;100.00;99270.09;6207751;23;20013;-81
2023/03/09 05:28:24;;;;;;;157.77;64.55;;;;;;;-0.76;100.00;99269.13;6207863;23;20050;-82
2023/03/09 05:30:50;;;;;;;158.93;63.10;;;;;;;-0.71;100.00;99276.88;6208311;23;20005;-83
2023/03/09 05:33:16;;;;;;;154.40;64.53;;;;;;;-0.72;100.00;99269.06;6206822;23;20004;-83
2023/03/09 05:35:42;;;;;;;158.13;65.88;;;;;;;-0.77;100.00;99264.81;6205266;23;20008;-83
2023/03/09 05:38:07;;;;;;;156.45;65.22;;;;;;;-0.70;100.00;99270.72;6206672;23;20036;-83
2023/03/09 05:40:32;;;;;;;166.45;66.30;;;;;;;-0.80;100.00;99267.50;6205459;23;20042;-83
2023/03/09 05:42:58;;;;;;;152.55;64.32;;;;;;;-0.77;100.00;99272.66;6206914;23;20007;-83
2023/03/09 05:45:23;;;;;;;158.30;63.80;;;;;;;-0.73;100.00;99283.88;6207101;23;20015;-82
2023/03/09 05:47:48;;;;;;;163.23;65.88;;;;;;;-0.73;100.00;99283.03;6179336;23;20012;-82
2023/03/09 05:50:13;;;;;;;163.73;66.93;;;;;;;-0.79;100.00;99273.63;6206472;23;20338;-82
2023/03/09 05:52:39;;;;;;;177.70;68.68;;;;;;;-0.74;100.00;99279.56;6204956;23;20133;-83
2023/03/09 05:55:05;;;;;;;167.02;68.43;;;;;;;-0.73;100.00;99285.63;6207070;23;20071;-84
2023/03/09 05:57:30;;;;;;;166.15;66.78;;;;;;;-0.73;100.00;99286.50;6205766;23;20423;-83
2023/03/09 05:59:55;;;;;;;155.13;64.85;;;;;;;-0.74;100.00;99289.16;6205828;23;20005;-82
2023/03/09 06:02:20;;;;;;;156.35;66.30;;;;;;;-0.81;100.00;99265.81;6205957;23;20016;-84
2023/03/09 06:04:50;;;;;;;167.63;67.00;;;;;;;-0.71;100.00;99281.22;6206052;23;20043;-82
2023/03/09 06:07:16;;;;;;;171.15;68.18;;;;;;;-0.71;100.00;99282.09;6206191;23;20005;-82
2023/03/09 06:09:41;;;;;;;170.05;67.95;;;;;;;-0.70;100.00;99278.56;6204739;23;20799;-82
2023/03/09 06:12:07;;;;;;;168.50;67.75;;;;;;;-0.67;100.00;99288.06;6204668;23;20009;-83
2023/03/09 06:14:32;;;;;;;154.18;66.28;;;;;;;-0.69;100.00;99293.34;6204059;23;20012;-84
2023/03/09 06:16:59;;;;;;;160.85;67.85;;;;;;;-0.68;100.00;99302.03;6205000;23;20439;-83
2023/03/09 06:19:25;;;;;;;170.77;68.38;;;;;;;-0.75;100.00;99293.53;6206584;23;20062;-84
2023/03/09 06:21:50;;;;;;;166.40;67.75;;;;;;;-0.65;100.00;99307.16;6203202;23;20008;-84
2023/03/09 06:24:15;;;;;;;173.48;66.65;;;;;;;-0.64;100.00;99308.88;6206102;23;20005;-84
2023/03/09 06:26:41;;;;;;;165.52;67.15;;;;;;;-0.63;100.00;99313.19;6205817;23;20028;-83
2023/03/09 06:29:06;;;;;;;154.30;65.43;;;;;;;-0.60;100.00;99323.56;6206071;23;20000;-83
2023/03/09 06:31:32;;;;;;;160.52;66.03;;;;;;;-0.57;100.00;99323.47;6178381;23;20012;-83
2023/03/09 06:33:58;;;;;;;162.35;64.20;;;;;;;-0.58;100.00;99316.53;6206371;23;20001;-84
2023/03/09 06:36:23;;;;;;;169.05;68.28;;;;;;;-0.54;100.00;99318.16;6205776;23;20008;-83
2023/03/09 06:38:48;;;;;;;169.15;66.95;;;;;;;-0.51;100.00;99331.97;6205873;23;20005;-84
2023/03/09 06:41:15;;;;;;;157.85;64.88;;;;;;;-0.48;100.00;99335.41;6205361;23;20013;-83
2023/03/09 06:43:41;;;;;;;166.88;67.18;;;;;;;-0.45;100.00;99332.72;6204190;23;20000;-84
2023/03/09 06:46:08;;;;;;;166.77;67.22;;;;;;;-0.48;100.00;99338.88;6207926;23;20008;-83
2023/03/09 06:48:33;;;;;;;163.65;66.32;;;;;;;-0.38;100.00;99342.06;6208463;23;20004;-83
2023/03/09 06:50:59;;;;;;;162.63;65.60;;;;;;;-0.36;100.00;99359.44;6206428;23;20485;-84
2023/03/09 06:53:24;;;;;;;152.90;63.58;;;;;;;-0.37;100.00;99367.31;6181566;23;20004;-83
2023/03/09 06:55:49;;;;;;;156.80;65.30;;;;;;;-0.37;100.00;99368.19;6207972;23;20422;-83
2023/03/09 06:58:15;;;;;;;149.77;65.45;;;;;;;-0.38;100.00;99360.34;6208428;23;20008;-84
2023/03/09 07:00:43;;;;;;;152.77;64.25;;;;;;;-0.36;100.00;99377.72;6205750;23;20008;-83
2023/03/09 07:03:13;;;;;;;157.07;64.38;;;;;;;-0.40;100.00;99380.47;6209245;23;20001;-82
2023/03/09 07:05:38;;;;;;;154.48;65.00;;;;;;;-0.34;100.00;99385.50;6208122;23;20008;-84
2023/03/09 07:08:04;;;;;;;155.15;64.97;;;;;;;-0.47;100.00;99374.56;6208334;23;20012;-83
2023/03/09 07:10:29;;;;;;;143.27;64.45;;;;;;;-0.34;100.00;99406.44;6180054;23;20093;-83
2023/03/09 07:12:54;;;;;;;146.68;62.63;;;;;;;-0.36;100.00;99403.00;6207138;23;20429;-82
2023/03/09 07:15:20;;;;;;;144.40;64.45;;;;;;;-0.39;100.00;99392.63;6206352;23;20011;-81
2023/03/09 07:17:45;;;;;;;140.73;63.47;;;;;;;-0.36;100.00;99397.78;6206597;23;20509;-82
2023/03/09 07:20:12;;;;;;;144.07;64.38;;;;;;;-0.29;100.00;99415.00;6205997;23;20009;-82
2023/03/09 07:22:37;;;;;;;142.57;64.32;;;;;;;-0.28;100.00;99419.34;6207292;23;20402;-83
2023/03/09 07:25:03;;;;;;;142.35;61.95;;;;;;;-0.33;100.00;99414.25;6209762;23;20012;-82
2023/03/09 07:27:30;;;;;;;136.45;61.70;;;;;;;-0.31;100.00;99435.97;6209547;23;20450;-83
2023/03/09 07:29:55;;;;;;;136.90;61.53;;;;;;;-0.30;100.00;99445.50;6207642;23;20016;-83
2023/03/09 07:32:20;;;;;;;138.60;63.08;;;;;;;-0.27;100.00;99447.19;6209378;23;20004;-83
2023/03/09 07:34:46;;;;;;;144.93;65.95;;;;;;;-0.22;100.00;99452.28;6204939;23;20008;-83
2023/03/09 07:37:11;;;;;;;154.40;63.78;;;;;;;-0.18;100.00;99459.13;6207950;23;20008;-82
2023/03/09 07:39:36;;;;;;;131.27;62.30;;;;;;;-0.24;100.00;99460.19;6206019;23;20522;-83
2023/03/09 07:42:02;;;;;;;148.77;63.03;;;;;;;-0.24;100.00;99470.63;6180718;23;20013;-82
2023/03/09 07:44:28;;;;;;;140.55;61.55;;;;;;;-0.32;100.00;99462.16;6208566;23;20008;-82
2023/03/09 07:46:54;;;;;;;138.48;64.40;;;;;;;-0.26;100.00;99472.44;6206643;23;20008;-82
2023/03/09 07:49:19;;;;;;;150.13;65.55;;;;;;;-0.18;100.00;99478.28;6206539;23;20100;-83
2023/03/09 07:51:45;;;;;;;140.70;64.72;;;;;;;-0.19;100.00;99480.97;6205933;23;20004;-82
2023/03/09 07:54:10;;;;;;;141.10;61.53;;;;;;;-0.26;100.00;99470.66;6206033;23;20027;-83
2023/03/09 07:56:36;;;;;;;132.27;61.80;;;;;;;-0.19;100.00;99484.44;6205318;23;20438;-83
2023/03/09 07:59:01;;;;;;;122.95;61.17;;;;;;;-0.29;100.00;99493.44;6205792;23;20043;-84
2023/03/09 08:01:27;;;;;;;122.85;59.00;;;;;;;-0.26;100.00;99503.81;6204548;23;20017;-83
2023/03/09 08:03:53;;;;;;;121.20;59.75;;;;;;;-0.25;100.00;99495.06;6205924;23;20369;-84
2023/03/09 08:06:19;;;;;;;129.63;61.40;;;;;;;-0.16;100.00;99496.56;6207185;23;20012;-83
2023/03/09 08:08:44;;;;;;;132.50;62.45;;;;;;;-0.18;100.00;99487.91;6205502;23;20012;-83
2023/03/09 08:11:10;;;;;;;132.38;61.72;;;;;;;-0.11;100.00;99492.06;6179431;23;20062;-83
2023/03/09 08:13:35;;;;;;;133.13;63.90;;;;;;;-0.05;100.00;99497.94;6206382;23;20000;-83
2023/03/09 08:16:04;;;;;;;138.82;66.00;;;;;;;0.11;100.00;99506.22;6206445;23;20012;-82
2023/03/09 08:18:30;;;;;;;136.70;64.93;;;;;;;0.15;100.00;99507.84;6204870;23;20032;-81
2023/03/09 08:21:05;;;;;;;131.32;64.28;;;;;;;0.13;100.00;99514.03;6205987;23;20307;-82
2023/03/09 08:23:32;;;;;;;119.80;61.13;;;;;;;0.07;100.00;99512.44;6206392;23;20016;-82
2023/03/09 08:25:57;;;;;;;124.50;61.75;;;;;;;0.13;100.00;99514.03;6208727;23;20012;-83
2023/03/09 08:28:22;;;;;;;125.68;61.97;;;;;;;0.04;100.00;99507.28;6206886;23;20010;-82
2023/03/09 08:30:48;;;;;;;121.97;61.10;;;;;;;0.10;100.00;99527.19;6203063;23;20004;-83
2023/03/09 08:33:14;;;;;;;115.20;60.65;;;;;;;0.08;100.00;99519.38;6206894;23;20005;-83
2023/03/09 08:35:39;;;;;;;118.47;60.15;;;;;;;0.08;100.00;99534.22;6205357;23;20062;-81
2023/03/09 08:38:04;;;;;;;113.55;58.03;;;;;;;0.09;100.00;99547.28;6203594;23;20004;-80
2023/03/09 08:40:30;;;;;;;121.55;59.40;;;;;;;0.18;100.00;99549.63;6203451;23;20011;-82
2023/03/09 08:42:55;;;;;;;120.88;60.47;;;;;;;0.23;100.00;99558.19;6207471;23;20652;-80
2023/03/09 08:45:20;;;;;;;128.02;60.58;;;;;;;0.26;100.00;99565.09;6207927;23;20010;-81
2023/03/09 08:47:46;;;;;;;119.63;59.88;;;;;;;0.26;100.00;99557.25;6208268;23;20008;-81
2023/03/09 08:50:11;;;;;;;106.95;57.38;;;;;;;0.21;100.00;99556.53;6206795;23;20009;-82
2023/03/09 08:52:39;;;;;;;119.75;59.40;;;;;;;0.32;100.00;99561.44;6207188;23;20685;-81
2023/03/09 08:55:06;;;;;;;110.05;57.05;;;;;;;0.30;100.00;99558.03;6206349;23;20013;-81
2023/03/09 08:57:32;;;;;;;107.90;56.22;;;;;;;0.33;100.00;99569.22;6205235;23;20000;-82
2023/03/09 08:59:58;;;;;;;116.72;58.83;;;;;;;0.38;100.00;99579.59;6203678;23;20063;-83
2023/03/09 09:02:23;;;;;;;108.70;58.50;;;;;;;0.46;100.00;99588.94;6207503;23;20016;-82
2023/03/09 09:04:49;;;;;;;112.85;56.40;;;;;;;0.54;100.00;99590.44;6206927;23;20513;-82
2023/03/09 09:07:15;;;;;;;106.43;56.20;;;;;;;0.55;100.00;99586.94;6207224;23;20009;-82
2023/03/09 09:09:41;;;;;;;108.63;57.30;;;;;;;0.56;100.00;99580.81;6205922;23;20157;-82
2023/03/09 09:12:08;;;;;;;112.03;56.75;;;;;;;0.56;100.00;99578.19;6207155;23;20421;-83
2023/03/09 09:14:37;;;;;;;101.47;54.92;;;;;;;0.57;100.00;99596.44;6206061;23;20084;-83
2023/03/09 09:17:03;;;;;;;107.70;55.45;;;;;;;0.67;100.00;99599.63;6207726;23;20075;-83
2023/03/09 09:19:28;;;;;;;104.03;55.15;;;;;;;0.67;100.00;99605.75;6205440;23;20012;-83
2023/03/09 09:21:55;;;;;;;103.28;54.30;;;;;;;0.68;100.00;99609.25;6206715;23;20028;-82
2023/03/09 09:24:20;;;;;;;102.03;55.00;;;;;;;0.64;100.00;99605.00;6206722;23;20066;-81
2023/03/09 09:26:46;;;;;;;99.18;53.60;;;;;;;0.66;100.00;99593.56;6206716;23;20546;-82
2023/03/09 09:29:12;;;;;;;99.13;53.63;;;;;;;0.62;100.00;99584.06;6210429;23;20024;-81
2023/03/09 09:31:38;;;;;;;100.55;54.90;;;;;;;0.75;100.00;99602.88;6181968;23;20043;-81
2023/03/09 09:34:04;;;;;;;99.57;54.42;;;;;;;0.82;100.00;99596.56;6207714;23;20005;-81
2023/03/09 09:36:30;;;;;;;96.45;54.22;;;;;;;0.87;100.00;99599.88;6206694;23;20004;-81
2023/03/09 09:38:55;;;;;;;93.25;52.88;;;;;;;0.94;100.00;99617.13;6179446;23;20072;-83
2023/03/09 09:41:44;;;;;;;104.00;54.55;;;;;;;1.08;100.00;99624.56;6207313;23;20011;-82
2023/03/09 09:44:23;;;;;;;95.72;53.47;;;;;;;1.09;100.00;99636.78;6207422;23;20004;-82
2023/03/09 09:46:52;;;;;;;86.35;51.33;;;;;;;1.01;100.00;99630.91;6206096;23;20004;-83
2023/03/09 09:49:22;;;;;;;88.85;50.28;;;;;;;1.09;100.00;99622.81;6206303;23;20631;-81
2023/03/09 09:52:01;;;;;;;90.75;49.92;;;;;;;1.11;100.00;99608.75;6206110;23;20064;-82
2023/03/09 09:55:00;;;;;;;97.07;52.90;;;;;;;1.10;100.00;99600.94;6206509;23;20422;-81
2023/03/09 09:57:38;;;;;;;97.40;51.40;;;;;;;1.22;100.00;99618.91;6181217;23;20060;-83
2023/03/09 10:00:35;;;;;;;94.82;53.70;;;;;;;1.29;100.00;99617.78;6204876;23;20013;-83
2023/03/09 10:03:19;;;;;;;87.97;50.30;;;;;;;1.24;100.00;99619.69;6173383;23;20079;-81
2023/03/09 10:05:57;;;;;;;80.43;48.67;;;;;;;1.23;100.00;99613.59;6206146;23;20055;-82
2023/03/09 10:08:27;;;;;;;83.78;46.33;;;;;;;1.30;100.00;99630.00;6206156;23;20058;-82
2023/03/09 10:10:55;;;;;;;83.35;49.10;;;;;;;1.32;100.00;99617.69;6206003;23;20455;-82
2023/03/09 10:13:30;;;;;;;83.63;50.00;;;;;;;1.36;100.00;99608.81;6205875;23;20052;-81
2023/03/09 10:15:57;;;;;;;;;;;;;;;1.59;100.00;99615.94;6207141;23;20066;-81
2023/03/09 10:18:38;;;;;;;80.00;46.85;;;;;;;1.44;100.00;99608.56;6204405;23;19907;-81
2023/03/09 10:21:12;;;;;;;78.07;46.50;;;;;;;1.53;100.00;99610.88;6204958;23;20087;-81
2023/03/09 10:23:41;;;;;;;71.72;43.85;;;;;;;1.51;100.00;99602.22;6204612;23;20470;-82
2023/03/09 10:26:25;;;;;;;78.15;43.25;;;;;;;1.80;100.00;99616.97;6205923;23;20015;-83
2023/03/09 10:28:54;;;;;;;70.75;42.67;;;;;;;1.78;100.00;99616.13;6204310;23;20008;-83
2023/03/09 10:31:40;;;;;;;72.70;42.55;;;;;;;1.82;100.00;99622.13;6206724;23;20635;-83
2023/03/09 10:34:16;;;;;;;69.43;42.83;;;;;;;1.82;100.00;99596.75;6205902;23;20028;-82
2023/03/09 10:36:57;;;;;;;71.00;43.15;;;;;;;2.00;100.00;99616.22;6205466;23;20012;-82
2023/03/09 10:39:24;;;;;;;70.20;43.10;;;;;;;2.19;100.00;99608.56;6206959;23;20043;-81
2023/03/09 10:41:54;;;;;;;78.75;43.45;;;;;;;2.41;100.00;99621.75;6206224;23;20008;-82
2023/03/09 10:44:20;;;;;;;71.85;43.00;;;;;;;2.49;100.00;99622.34;6207104;23;20257;-82
2023/03/09 10:46:54;;;;;;;74.20;45.03;;;;;;;2.61;100.00;99626.28;6179576;23;20004;-83
2023/03/09 10:49:19;;;;;;;73.57;43.20;;;;;;;2.66;100.00;99622.56;6206657;23;20445;-83
2023/03/09 10:51:56;;;;;;;67.97;42.92;;;;;;;2.61;100.00;99626.28;6206056;23;20006;-83
2023/03/09 10:54:25;;;;;;;65.80;40.90;;;;;;;2.54;100.00;99628.28;6205698;23;20044;-83
2023/03/09 10:56:52;;;;;;;69.57;41.95;;;;;;;2.65;100.00;99625.25;6205146;23;20000;-83
2023/03/09 10:59:23;;;;;;;67.57;41.83;;;;;;;2.67;100.00;99618.16;6206956;23;20005;-83
2023/03/09 11:01:54;;;;;;;68.00;42.05;;;;;;;2.70;100.00;99625.94;6206321;23;20040;-82
2023/03/09 11:04:22;;;;;;;65.05;41.85;;;;;;;2.66;100.00;99621.72;6205703;23;20004;-82
2023/03/09 11:07:09;;;;;;;70.55;43.50;;;;;;;2.71;100.00;99625.00;6179398;23;20015;-82